Time;durP1;ratioP1;P1;durP2;ratioP2;P2;SDS_P1;SDS_P2;PMS_P1;PMS_P2;Temp;Humidity;BMP_temperature;BMP_pressure;BME280_temperature;BME280_humidity;BME280_pressure;Samples;Min_cycle;Max_cycle;Signal;HPM_P1;HPM_P2
2021/08/04 00:02:03;;;;;;;1.02;0.30;;;;;;;;;;5012203;28;20848;-64
2021/08/04 00:04:29;;;;;;;1.00;0.40;;;;;;;;;;5012786;28;20671;-64
2021/08/04 00:06:55;;;;;;;1.10;0.40;;;;;;;;;;5012267;28;20438;-64
2021/08/04 00:09:21;;;;;;;1.00;0.40;;;;;;;;;;5012067;28;20487;-63
2021/08/04 00:11:47;;;;;;;1.10;0.30;;;;;;;;;;5012172;28;20412;-63
2021/08/04 00:14:13;;;;;;;1.00;0.30;;;;;;;;;;5012208;28;20408;-64
2021/08/04 00:16:39;;;;;;;1.20;0.40;;;;;;;;;;5012220;28;20413;-64
2021/08/04 00:19:05;;;;;;;1.00;0.40;;;;;;;;;;5011902;28;20446;-64
2021/08/04 00:21:31;;;;;;;1.30;0.40;;;;;;;;;;5011799;28;20499;-65
2021/08/04 00:23:57;;;;;;;1.20;0.30;;;;;;;;;;5011985;28;20421;-64
2021/08/04 00:26:23;;;;;;;1.20;0.30;;;;;;;;;;5012115;28;20414;-63
2021/08/04 00:28:49;;;;;;;1.30;0.40;;;;;;;;;;5011939;28;20825;-63
2021/08/04 00:31:15;;;;;;;1.30;0.40;;;;;;;;;;5012125;28;20476;-65
2021/08/04 00:33:41;;;;;;;1.30;0.40;;;;;;;;;;5011636;28;20209;-65
2021/08/04 00:36:07;;;;;;;1.30;0.40;;;;;;;;;;5011857;28;20421;-64
2021/08/04 00:38:33;;;;;;;1.20;0.30;;;;;;;;;;5011709;28;20435;-65
2021/08/04 00:40:59;;;;;;;1.20;0.40;;;;;;;;;;5011704;28;20469;-65
2021/08/04 00:43:25;;;;;;;1.10;0.40;;;;;;;;;;5011832;28;20232;-66
2021/08/04 00:45:51;;;;;;;1.10;0.40;;;;;;;;;;5011917;28;20494;-64
2021/08/04 00:48:18;;;;;;;1.10;0.40;;;;;;;;;;5012123;28;20451;-62
2021/08/04 00:50:44;;;;;;;1.10;0.40;;;;;;;;;;5011498;28;20438;-66
2021/08/04 00:53:17;;;;;;;1.10;0.40;;;;;;;;;;5011737;28;20419;-65
2021/08/04 00:55:43;;;;;;;1.20;0.40;;;;;;;;;;5011790;28;20405;-64
2021/08/04 00:58:09;;;;;;;1.07;0.40;;;;;;;;;;5011780;28;20243;-64
2021/08/04 01:00:36;;;;;;;1.10;0.37;;;;;;;;;;5011393;28;20521;-65
2021/08/04 01:03:08;;;;;;;1.10;0.30;;;;;;;;;;5012065;28;20470;-65
2021/08/04 01:05:38;;;;;;;1.10;0.40;;;;;;;;;;5011396;28;20258;-64
2021/08/04 01:08:06;;;;;;;1.10;0.40;;;;;;;;;;5011572;28;20396;-65
2021/08/04 01:10:34;;;;;;;1.00;0.30;;;;;;;;;;5011471;28;20693;-66
2021/08/04 01:13:06;;;;;;;1.00;0.40;;;;;;;;;;5011603;28;20186;-66
2021/08/04 01:15:34;;;;;;;1.00;0.40;;;;;;;;;;5011575;28;20416;-64
2021/08/04 01:18:01;;;;;;;1.00;0.40;;;;;;;;;;5011493;28;20413;-64
2021/08/04 01:20:28;;;;;;;1.00;0.40;;;;;;;;;;5009948;28;20552;-66
2021/08/04 01:22:57;;;;;;;1.00;0.40;;;;;;;;;;5011415;28;20453;-65
2021/08/04 01:25:26;;;;;;;1.00;0.40;;;;;;;;;;5011238;28;20412;-65
2021/08/04 01:28:12;;;;;;;0.90;0.30;;;;;;;;;;5011386;28;20169;-65
2021/08/04 01:30:38;;;;;;;1.00;0.30;;;;;;;;;;5009798;28;20635;-65
2021/08/04 01:33:04;;;;;;;0.88;0.40;;;;;;;;;;5011320;28;20412;-65
2021/08/04 01:35:31;;;;;;;1.00;0.40;;;;;;;;;;5011219;28;20182;-64
2021/08/04 01:37:57;;;;;;;1.00;0.40;;;;;;;;;;5011273;28;20445;-66
2021/08/04 01:40:25;;;;;;;3.00;0.40;;;;;;;;;;5010878;28;20202;-64
2021/08/04 01:42:51;;;;;;;2.90;0.50;;;;;;;;;;5011209;28;20462;-64
2021/08/04 01:45:17;;;;;;;2.90;0.40;;;;;;;;;;5012727;28;20437;-64
2021/08/04 01:47:43;;;;;;;2.72;0.40;;;;;;;;;;5013465;28;20448;-63
2021/08/04 01:50:09;;;;;;;2.80;0.50;;;;;;;;;;5014199;28;20228;-65
2021/08/04 01:52:37;;;;;;;2.80;0.50;;;;;;;;;;5014603;28;20445;-65
2021/08/04 01:55:04;;;;;;;2.67;0.40;;;;;;;;;;5014890;28;20466;-64
2021/08/04 01:57:30;;;;;;;2.60;0.40;;;;;;;;;;5014658;28;20452;-64
2021/08/04 01:59:56;;;;;;;2.60;0.40;;;;;;;;;;5014256;28;20227;-64
2021/08/04 02:02:23;;;;;;;2.60;0.40;;;;;;;;;;5014493;28;20764;-64
2021/08/04 02:04:51;;;;;;;2.60;0.40;;;;;;;;;;5014354;28;20398;-65
2021/08/04 02:07:36;;;;;;;2.60;0.40;;;;;;;;;;5013276;28;20451;-65
2021/08/04 02:10:03;;;;;;;2.50;0.40;;;;;;;;;;5013915;28;20204;-64
2021/08/04 02:12:30;;;;;;;2.60;0.40;;;;;;;;;;5014423;28;20416;-64
2021/08/04 02:15:03;;;;;;;2.53;0.40;;;;;;;;;;5014211;28;20488;-64
2021/08/04 02:17:33;;;;;;;2.60;0.40;;;;;;;;;;5012832;28;20430;-64
2021/08/04 02:20:18;;;;;;;2.40;0.40;;;;;;;;;;5013826;28;20481;-64
2021/08/04 02:22:52;;;;;;;2.33;0.40;;;;;;;;;;5014063;28;20558;-65
2021/08/04 02:25:22;;;;;;;2.53;0.40;;;;;;;;;;5013939;28;20410;-64
2021/08/04 02:27:49;;;;;;;2.40;0.40;;;;;;;;;;5014499;28;20419;-65
2021/08/04 02:30:16;;;;;;;2.30;0.40;;;;;;;;;;5012344;28;20468;-64
2021/08/04 02:32:42;;;;;;;2.30;0.50;;;;;;;;;;5014016;28;20188;-64
2021/08/04 02:35:09;;;;;;;2.30;0.52;;;;;;;;;;5013820;28;20540;-66
2021/08/04 02:37:35;;;;;;;2.33;0.50;;;;;;;;;;5013719;28;20186;-65
2021/08/04 02:40:02;;;;;;;2.33;0.40;;;;;;;;;;5013430;28;20462;-64
2021/08/04 02:42:28;;;;;;;2.38;0.50;;;;;;;;;;5013684;28;20453;-64
2021/08/04 02:44:54;;;;;;;2.38;0.40;;;;;;;;;;5013718;28;20174;-65
2021/08/04 02:47:20;;;;;;;2.20;0.40;;;;;;;;;;5013913;28;20203;-65
2021/08/04 02:49:46;;;;;;;1.80;0.40;;;;;;;;;;5013174;28;20432;-65
2021/08/04 02:52:14;;;;;;;2.67;0.40;;;;;;;;;;5013611;28;20477;-65
2021/08/04 02:54:43;;;;;;;3.90;0.43;;;;;;;;;;5013316;28;20420;-65
2021/08/04 02:57:09;;;;;;;3.60;0.50;;;;;;;;;;5013316;28;20411;-65
2021/08/04 02:59:35;;;;;;;3.60;0.40;;;;;;;;;;5013102;28;20197;-67
2021/08/04 03:02:01;;;;;;;3.53;0.40;;;;;;;;;;5013503;28;20446;-65
2021/08/04 03:04:27;;;;;;;3.43;0.40;;;;;;;;;;5013688;28;20927;-65
2021/08/04 03:06:53;;;;;;;3.40;0.40;;;;;;;;;;5013660;28;20694;-65
2021/08/04 03:09:18;;;;;;;3.40;0.50;;;;;;;;;;5012898;28;20411;-65
2021/08/04 03:11:44;;;;;;;3.30;0.50;;;;;;;;;;5013246;28;20438;-65
2021/08/04 03:14:10;;;;;;;3.20;0.40;;;;;;;;;;5013375;28;20782;-66
2021/08/04 03:16:37;;;;;;;3.13;0.40;;;;;;;;;;5013153;28;20415;-65
2021/08/04 03:19:03;;;;;;;3.20;0.50;;;;;;;;;;5012888;28;20410;-64
2021/08/04 03:21:29;;;;;;;3.13;0.40;;;;;;;;;;5012812;28;20252;-65
2021/08/04 03:23:55;;;;;;;3.10;0.40;;;;;;;;;;5013005;28;20176;-65
2021/08/04 03:26:21;;;;;;;3.10;0.50;;;;;;;;;;5013281;28;20941;-62
2021/08/04 03:28:47;;;;;;;3.03;0.40;;;;;;;;;;5013194;28;20900;-65
2021/08/04 03:31:13;;;;;;;3.00;0.40;;;;;;;;;;5012922;28;20462;-66
2021/08/04 03:33:39;;;;;;;3.00;0.40;;;;;;;;;;5013071;28;20452;-65
2021/08/04 03:36:05;;;;;;;3.00;0.40;;;;;;;;;;5011341;28;20473;-65
2021/08/04 03:38:32;;;;;;;3.00;0.40;;;;;;;;;;5012693;28;20409;-64
2021/08/04 03:40:58;;;;;;;3.03;0.40;;;;;;;;;;5012627;28;20441;-65
2021/08/04 03:43:24;;;;;;;3.00;0.40;;;;;;;;;;5012483;28;20466;-66
2021/08/04 03:45:50;;;;;;;2.93;0.40;;;;;;;;;;5012950;28;20556;-63
2021/08/04 03:48:16;;;;;;;2.97;0.40;;;;;;;;;;5012661;28;20871;-63
2021/08/04 03:50:42;;;;;;;0.30;0.30;;;;;;;;;;5049970;22;20587;-63
2021/08/04 03:53:08;;;;;;;0.30;0.30;;;;;;;;;;5051959;28;20455;-63
2021/08/04 03:55:34;;;;;;;0.30;0.30;;;;;;;;;;5052013;28;20446;-64
2021/08/04 03:58:00;;;;;;;0.70;0.30;;;;;;;;;;5051979;28;20431;-63
2021/08/04 04:00:26;;;;;;;0.60;0.40;;;;;;;;;;5051642;28;20428;-63
2021/08/04 04:02:52;;;;;;;2.30;0.40;;;;;;;;;;5051942;28;20499;-64
2021/08/04 04:05:18;;;;;;;2.40;0.40;;;;;;;;;;5051854;28;20409;-63
2021/08/04 04:07:44;;;;;;;2.40;0.40;;;;;;;;;;5051363;28;20912;-63
2021/08/04 04:10:11;;;;;;;2.47;0.40;;;;;;;;;;5051454;28;20427;-63
2021/08/04 04:12:38;;;;;;;2.50;0.40;;;;;;;;;;5051757;28;20906;-63
2021/08/04 04:15:04;;;;;;;2.50;0.40;;;;;;;;;;5051694;28;20502;-63
2021/08/04 04:17:30;;;;;;;2.57;0.40;;;;;;;;;;5051714;28;20410;-63
2021/08/04 04:19:56;;;;;;;2.60;0.50;;;;;;;;;;5051373;28;20793;-63
2021/08/04 04:22:22;;;;;;;2.65;0.40;;;;;;;;;;5033644;28;20513;-63
2021/08/04 04:24:48;;;;;;;2.60;0.40;;;;;;;;;;5051513;28;20194;-63
2021/08/04 04:27:14;;;;;;;2.70;0.40;;;;;;;;;;5051537;28;20201;-63
2021/08/04 04:29:40;;;;;;;2.70;0.50;;;;;;;;;;5051283;28;20408;-63
2021/08/04 04:32:10;;;;;;;2.70;0.40;;;;;;;;;;5051626;28;20859;-63
2021/08/04 04:34:36;;;;;;;2.70;0.40;;;;;;;;;;5051479;28;20532;-63
2021/08/04 04:37:02;;;;;;;2.80;0.40;;;;;;;;;;5051466;28;20448;-63
2021/08/04 04:39:28;;;;;;;2.75;0.40;;;;;;;;;;5051197;28;20252;-63
2021/08/04 04:41:54;;;;;;;2.80;0.50;;;;;;;;;;5051269;28;20779;-63
2021/08/04 04:44:20;;;;;;;2.80;0.40;;;;;;;;;;5051493;28;20468;-63
2021/08/04 04:46:46;;;;;;;2.80;0.40;;;;;;;;;;5051395;28;20410;-63
2021/08/04 04:49:12;;;;;;;2.80;0.40;;;;;;;;;;5051136;28;20172;-63
2021/08/04 04:51:38;;;;;;;2.90;0.40;;;;;;;;;;5051137;28;20444;-63
2021/08/04 04:54:04;;;;;;;2.90;0.40;;;;;;;;;;5051285;28;20457;-63
2021/08/04 04:56:30;;;;;;;2.92;0.40;;;;;;;;;;5051215;28;20826;-63
2021/08/04 04:58:56;;;;;;;2.93;0.50;;;;;;;;;;5051128;28;20176;-63
2021/08/04 05:01:22;;;;;;;2.90;0.40;;;;;;;;;;5051087;28;20434;-63
2021/08/04 05:03:49;;;;;;;3.03;0.40;;;;;;;;;;5051119;28;20421;-63
2021/08/04 05:06:15;;;;;;;3.05;0.40;;;;;;;;;;5051195;28;20175;-63
2021/08/04 05:08:41;;;;;;;3.07;0.40;;;;;;;;;;5050945;28;20635;-63
2021/08/04 05:11:07;;;;;;;3.10;0.40;;;;;;;;;;5051055;28;20452;-63
2021/08/04 05:13:42;;;;;;;3.10;0.40;;;;;;;;;;5051213;28;20906;-64
2021/08/04 05:16:08;;;;;;;3.10;0.50;;;;;;;;;;5051107;28;20451;-63
2021/08/04 05:18:34;;;;;;;3.07;0.40;;;;;;;;;;5050967;28;20413;-63
2021/08/04 05:21:00;;;;;;;3.07;0.50;;;;;;;;;;5053702;28;20446;-64
2021/08/04 05:23:26;;;;;;;3.10;0.40;;;;;;;;;;5054960;28;20413;-63
2021/08/04 05:25:52;;;;;;;3.10;0.40;;;;;;;;;;5054450;28;20780;-63
2021/08/04 05:28:18;;;;;;;3.10;0.40;;;;;;;;;;5054563;28;20421;-63
2021/08/04 05:30:44;;;;;;;3.10;0.40;;;;;;;;;;5054498;28;21002;-62
2021/08/04 05:33:10;;;;;;;3.10;0.40;;;;;;;;;;5051594;28;20423;-63
2021/08/04 05:35:36;;;;;;;3.10;0.40;;;;;;;;;;5037022;28;20421;-63
2021/08/04 05:38:02;;;;;;;3.10;0.40;;;;;;;;;;5054646;28;20412;-62
2021/08/04 05:40:28;;;;;;;3.00;0.43;;;;;;;;;;5054322;28;20475;-63
2021/08/04 05:42:54;;;;;;;3.10;0.40;;;;;;;;;;5044835;28;20500;-63
2021/08/04 05:45:20;;;;;;;3.07;0.50;;;;;;;;;;5034557;28;20415;-63
2021/08/04 05:47:46;;;;;;;2.67;0.40;;;;;;;;;;5034488;28;20443;-63
2021/08/04 05:50:12;;;;;;;2.80;0.40;;;;;;;;;;5034100;28;20942;-63
2021/08/04 05:52:38;;;;;;;2.87;0.40;;;;;;;;;;5036967;28;20419;-63
2021/08/04 05:55:05;;;;;;;2.80;0.40;;;;;;;;;;5034226;28;20971;-63
2021/08/04 05:57:31;;;;;;;2.80;0.40;;;;;;;;;;5034338;28;20490;-63
2021/08/04 05:59:57;;;;;;;2.87;0.40;;;;;;;;;;5033922;28;20184;-63
2021/08/04 06:02:23;;;;;;;2.80;0.40;;;;;;;;;;5051156;28;20835;-63
2021/08/04 06:04:49;;;;;;;2.80;0.40;;;;;;;;;;5037691;28;20447;-63
2021/08/04 06:07:15;;;;;;;2.83;0.40;;;;;;;;;;5034083;28;20411;-63
2021/08/04 06:09:41;;;;;;;2.80;0.40;;;;;;;;;;5033795;28;20415;-63
2021/08/04 06:12:09;;;;;;;2.60;0.40;;;;;;;;;;5052363;28;20442;-63
2021/08/04 06:14:35;;;;;;;2.60;0.40;;;;;;;;;;5053935;28;20413;-63
2021/08/04 06:17:01;;;;;;;2.67;0.40;;;;;;;;;;5053435;28;21009;-63
2021/08/04 06:19:27;;;;;;;2.70;0.40;;;;;;;;;;5053471;28;20468;-63
2021/08/04 06:21:54;;;;;;;2.73;0.40;;;;;;;;;;5054072;28;20523;-63
2021/08/04 06:24:20;;;;;;;2.70;0.40;;;;;;;;;;5053077;28;20931;-61
2021/08/04 06:26:46;;;;;;;2.70;0.40;;;;;;;;;;5052275;28;20807;-61
2021/08/04 06:29:12;;;;;;;2.67;0.40;;;;;;;;;;5054044;28;20495;-60
2021/08/04 06:31:38;;;;;;;2.63;0.40;;;;;;;;;;5053000;28;20438;-60
2021/08/04 06:34:04;;;;;;;2.40;0.40;;;;;;;;;;5052204;28;20611;-61
2021/08/04 06:36:30;;;;;;;2.70;0.40;;;;;;;;;;5053242;28;20401;-60
2021/08/04 06:38:56;;;;;;;2.80;0.50;;;;;;;;;;5052526;28;20454;-61
2021/08/04 06:41:22;;;;;;;2.87;0.47;;;;;;;;;;5053259;28;20458;-61
2021/08/04 06:43:48;;;;;;;4.07;0.40;;;;;;;;;;5052856;28;20795;-61
2021/08/04 06:46:14;;;;;;;5.27;0.40;;;;;;;;;;5053817;28;20441;-61
2021/08/04 06:48:40;;;;;;;5.97;0.40;;;;;;;;;;5052806;28;20485;-63
2021/08/04 06:51:08;;;;;;;5.77;0.50;;;;;;;;;;5052354;28;20797;-61
2021/08/04 06:53:34;;;;;;;5.57;0.40;;;;;;;;;;5052633;28;20495;-61
2021/08/04 06:56:00;;;;;;;5.40;0.50;;;;;;;;;;5053039;28;20410;-61
2021/08/04 06:58:26;;;;;;;5.30;0.40;;;;;;;;;;5052998;28;20402;-61
2021/08/04 07:00:52;;;;;;;5.20;0.40;;;;;;;;;;5052042;28;20442;-62
2021/08/04 07:03:18;;;;;;;3.50;0.40;;;;;;;;;;5052595;28;20957;-62
2021/08/04 07:05:46;;;;;;;3.33;0.40;;;;;;;;;;5053153;28;20754;-61
2021/08/04 07:08:17;;;;;;;3.40;0.40;;;;;;;;;;5052960;28;20820;-61
2021/08/04 07:10:43;;;;;;;3.30;0.40;;;;;;;;;;5052468;28;20419;-61
2021/08/04 07:13:09;;;;;;;3.40;0.40;;;;;;;;;;5052698;28;20894;-61
2021/08/04 07:15:35;;;;;;;3.30;0.40;;;;;;;;;;5052903;28;20461;-62
2021/08/04 07:18:04;;;;;;;3.30;0.40;;;;;;;;;;5052665;28;20406;-61
2021/08/04 07:20:33;;;;;;;3.30;0.40;;;;;;;;;;5052290;28;20405;-62
2021/08/04 07:22:59;;;;;;;3.33;0.40;;;;;;;;;;5052509;28;20501;-61
2021/08/04 07:25:25;;;;;;;1.60;0.30;;;;;;;;;;5052541;28;20378;-61
2021/08/04 07:27:51;;;;;;;1.40;0.30;;;;;;;;;;5052471;28;20449;-62
2021/08/04 07:30:17;;;;;;;1.33;0.40;;;;;;;;;;5052145;28;20426;-61
2021/08/04 07:32:43;;;;;;;1.30;0.30;;;;;;;;;;5052443;28;20881;-61
2021/08/04 07:35:09;;;;;;;1.40;0.40;;;;;;;;;;5052450;28;20410;-61
2021/08/04 07:37:35;;;;;;;1.30;0.30;;;;;;;;;;5052325;28;20497;-61
2021/08/04 07:40:01;;;;;;;1.30;0.40;;;;;;;;;;5052078;28;20438;-61
2021/08/04 07:42:27;;;;;;;1.30;0.40;;;;;;;;;;5033582;28;20494;-61
2021/08/04 07:44:55;;;;;;;1.40;0.30;;;;;;;;;;5052243;28;20802;-61
2021/08/04 07:47:21;;;;;;;1.37;0.30;;;;;;;;;;5052695;28;20386;-61
2021/08/04 07:49:47;;;;;;;1.43;0.30;;;;;;;;;;5051751;28;20817;-61
2021/08/04 07:52:13;;;;;;;1.50;0.30;;;;;;;;;;5052218;28;20509;-62
2021/08/04 07:54:39;;;;;;;1.70;0.30;;;;;;;;;;5052143;28;20403;-61
2021/08/04 07:57:05;;;;;;;1.70;0.40;;;;;;;;;;5052113;28;20410;-61
2021/08/04 07:59:31;;;;;;;1.70;0.40;;;;;;;;;;5051666;28;20414;-61
2021/08/04 08:01:57;;;;;;;1.70;0.40;;;;;;;;;;5051586;28;20485;-62
2021/08/04 08:04:23;;;;;;;1.70;0.30;;;;;;;;;;5051897;28;20381;-61
2021/08/04 08:06:50;;;;;;;1.70;0.30;;;;;;;;;;5051969;28;20410;-62
2021/08/04 08:09:21;;;;;;;1.80;0.40;;;;;;;;;;5051823;28;20425;-61
2021/08/04 08:11:47;;;;;;;1.20;0.30;;;;;;;;;;5051875;28;20480;-63
2021/08/04 08:14:13;;;;;;;1.20;0.30;;;;;;;;;;5034304;28;20876;-63
2021/08/04 08:16:39;;;;;;;1.20;0.30;;;;;;;;;;5033819;28;20423;-63
2021/08/04 08:19:05;;;;;;;1.20;0.30;;;;;;;;;;5051491;28;20453;-64
2021/08/04 08:21:31;;;;;;;1.23;0.30;;;;;;;;;;5051691;28;20462;-64
2021/08/04 08:23:57;;;;;;;1.30;0.30;;;;;;;;;;5051848;28;20505;-64
2021/08/04 08:26:24;;;;;;;1.30;0.30;;;;;;;;;;5051739;28;20412;-63
2021/08/04 08:28:50;;;;;;;1.30;0.30;;;;;;;;;;5051353;28;20378;-63
2021/08/04 08:31:16;;;;;;;1.30;0.30;;;;;;;;;;5051435;28;20397;-64
2021/08/04 08:33:42;;;;;;;1.20;0.30;;;;;;;;;;5051550;28;20384;-63
2021/08/04 08:36:08;;;;;;;1.30;0.30;;;;;;;;;;5051543;28;20381;-64
2021/08/04 08:38:34;;;;;;;1.37;0.30;;;;;;;;;;5051216;28;20380;-63
2021/08/04 08:41:01;;;;;;;1.40;0.30;;;;;;;;;;5051365;28;20904;-63
2021/08/04 08:43:27;;;;;;;1.50;0.30;;;;;;;;;;5051447;28;20489;-63
2021/08/04 08:45:54;;;;;;;1.37;0.30;;;;;;;;;;5051336;28;20403;-63
2021/08/04 08:48:21;;;;;;;1.50;0.30;;;;;;;;;;5033365;28;20955;-63
2021/08/04 08:50:49;;;;;;;1.40;0.30;;;;;;;;;;5051133;28;20536;-64
2021/08/04 08:53:15;;;;;;;1.50;0.30;;;;;;;;;;5051347;28;20385;-64
2021/08/04 08:55:41;;;;;;;1.40;0.30;;;;;;;;;;5055457;28;20905;-63
2021/08/04 08:58:08;;;;;;;1.50;0.30;;;;;;;;;;5055362;28;20435;-64
2021/08/04 09:00:34;;;;;;;1.80;0.30;;;;;;;;;;5055029;28;20818;-64
2021/08/04 09:03:00;;;;;;;1.80;0.30;;;;;;;;;;5055320;28;20437;-64
2021/08/04 09:05:26;;;;;;;1.80;0.40;;;;;;;;;;5055320;28;20446;-64
2021/08/04 09:07:53;;;;;;;0.20;0.20;;;;;;;;;;5055252;28;20412;-62
2021/08/04 09:10:19;;;;;;;0.20;0.20;;;;;;;;;;5055458;28;20408;-62
2021/08/04 09:12:49;;;;;;;0.20;0.20;;;;;;;;;;5054999;28;20385;-62
2021/08/04 09:15:24;;;;;;;0.80;0.30;;;;;;;;;;5055041;28;20410;-62
2021/08/04 09:17:57;;;;;;;0.70;0.30;;;;;;;;;;5055080;28;20888;-62
2021/08/04 09:20:27;;;;;;;0.80;0.30;;;;;;;;;;5054844;28;20423;-62
2021/08/04 09:22:58;;;;;;;0.90;0.30;;;;;;;;;;5055038;28;20552;-62
2021/08/04 09:25:25;;;;;;;1.17;0.30;;;;;;;;;;5054903;28;20442;-62
2021/08/04 09:27:51;;;;;;;0.40;0.20;;;;;;;;;;5055004;28;21001;-62
2021/08/04 09:30:36;;;;;;;0.30;0.20;;;;;;;;;;5054537;28;20746;-62
2021/08/04 09:33:12;;;;;;;0.30;0.20;;;;;;;;;;5054878;28;20416;-62
2021/08/04 09:35:42;;;;;;;0.30;0.20;;;;;;;;;;5054622;28;20882;-62
2021/08/04 09:38:08;;;;;;;0.30;0.20;;;;;;;;;;5054757;28;20383;-62
2021/08/04 09:40:34;;;;;;;0.30;0.20;;;;;;;;;;5054608;28;20479;-63
2021/08/04 09:43:01;;;;;;;0.30;0.20;;;;;;;;;;5054839;28;20541;-65
2021/08/04 09:45:41;;;;;;;0.30;0.20;;;;;;;;;;5054595;28;20472;-63
2021/08/04 09:48:08;;;;;;;0.30;0.20;;;;;;;;;;5054576;28;20398;-62
2021/08/04 09:50:53;;;;;;;0.20;0.20;;;;;;;;;;5073904;23;20800;-64
2021/08/04 09:53:21;;;;;;;0.20;0.20;;;;;;;;;;5034463;28;20462;-63
2021/08/04 09:56:03;;;;;;;0.20;0.20;;;;;;;;;;5034361;28;20399;-66
2021/08/04 09:58:29;;;;;;;0.20;0.20;;;;;;;;;;5034362;28;20805;-64
2021/08/04 10:00:55;;;;;;;0.20;0.20;;;;;;;;;;5034215;28;20406;-65
2021/08/04 10:03:21;;;;;;;0.20;0.20;;;;;;;;;;5034171;28;20451;-66
2021/08/04 10:05:47;;;;;;;0.20;0.20;;;;;;;;;;5033380;28;20897;-67
2021/08/04 10:08:14;;;;;;;0.20;0.20;;;;;;;;;;5034039;28;20400;-65
2021/08/04 10:10:51;;;;;;;0.20;0.20;;;;;;;;;;5033954;28;20402;-65
2021/08/04 10:13:19;;;;;;;0.30;0.30;;;;;;;;;;5033990;28;20404;-64
2021/08/04 10:15:46;;;;;;;0.20;0.20;;;;;;;;;;5034002;28;20464;-65
2021/08/04 10:18:14;;;;;;;0.20;0.20;;;;;;;;;;5033828;28;20910;-65
2021/08/04 10:20:40;;;;;;;0.30;0.30;;;;;;;;;;5033648;28;20856;-65
2021/08/04 10:23:07;;;;;;;0.20;0.20;;;;;;;;;;5033692;28;20458;-65
2021/08/04 10:25:33;;;;;;;0.20;0.20;;;;;;;;;;5033806;28;20930;-64
2021/08/04 10:28:01;;;;;;;0.30;0.30;;;;;;;;;;5033645;28;20386;-64
2021/08/04 10:30:28;;;;;;;0.20;0.20;;;;;;;;;;5033833;28;20461;-64
2021/08/04 10:32:54;;;;;;;0.27;0.27;;;;;;;;;;5035438;28;20407;-65
2021/08/04 10:35:21;;;;;;;0.20;0.20;;;;;;;;;;5033758;28;20390;-64
2021/08/04 10:37:48;;;;;;;0.20;0.20;;;;;;;;;;5034410;28;20408;-65
2021/08/04 10:40:14;;;;;;;0.20;0.20;;;;;;;;;;5033551;28;20502;-66
2021/08/04 10:42:41;;;;;;;0.20;0.20;;;;;;;;;;5033852;28;20458;-66
2021/08/04 10:45:22;;;;;;;0.30;0.30;;;;;;;;;;5033803;28;20409;-65
2021/08/04 10:47:49;;;;;;;0.20;0.20;;;;;;;;;;5033543;28;20843;-66
2021/08/04 10:50:15;;;;;;;0.20;0.20;;;;;;;;;;5032873;28;20399;-66
2021/08/04 10:53:02;;;;;;;0.20;0.20;;;;;;;;;;5033240;28;20437;-65
2021/08/04 10:55:29;;;;;;;0.20;0.20;;;;;;;;;;5033200;28;20382;-66
2021/08/04 10:58:04;;;;;;;0.20;0.20;;;;;;;;;;5033289;28;20451;-64
2021/08/04 11:00:31;;;;;;;0.20;0.20;;;;;;;;;;5032969;28;20455;-65
2021/08/04 11:02:57;;;;;;;0.20;0.20;;;;;;;;;;5033040;28;20432;-66
2021/08/04 11:05:23;;;;;;;0.20;0.20;;;;;;;;;;5033181;28;20916;-64
2021/08/04 11:08:08;;;;;;;0.20;0.20;;;;;;;;;;5033051;28;20815;-63
2021/08/04 11:10:40;;;;;;;0.20;0.20;;;;;;;;;;5032747;28;20538;-65
2021/08/04 11:13:06;;;;;;;0.20;0.20;;;;;;;;;;5032911;28;20417;-65
2021/08/04 11:15:33;;;;;;;0.20;0.20;;;;;;;;;;5032955;28;20451;-65
2021/08/04 11:18:07;;;;;;;0.20;0.20;;;;;;;;;;5032698;28;20407;-65
2021/08/04 11:20:34;;;;;;;0.30;0.20;;;;;;;;;;5032493;28;20427;-63
2021/08/04 11:23:01;;;;;;;0.20;0.20;;;;;;;;;;5032569;28;20467;-66
2021/08/04 11:25:31;;;;;;;0.20;0.20;;;;;;;;;;5032528;28;20412;-65
2021/08/04 11:27:58;;;;;;;0.20;0.20;;;;;;;;;;5033293;28;20429;-64
2021/08/04 11:30:44;;;;;;;0.20;0.20;;;;;;;;;;5032297;28;20390;-65
2021/08/04 11:33:19;;;;;;;0.20;0.20;;;;;;;;;;5033257;28;20413;-66
2021/08/04 11:35:46;;;;;;;0.20;0.20;;;;;;;;;;5032646;28;20432;-64
2021/08/04 11:38:12;;;;;;;0.20;0.20;;;;;;;;;;5032575;28;21196;-65
2021/08/04 11:40:38;;;;;;;0.20;0.20;;;;;;;;;;5032108;28;20791;-66
2021/08/04 11:43:04;;;;;;;0.20;0.20;;;;;;;;;;5032086;28;20938;-66
2021/08/04 11:45:30;;;;;;;0.20;0.20;;;;;;;;;;5032216;28;20452;-65
2021/08/04 11:47:56;;;;;;;0.20;0.20;;;;;;;;;;5032297;28;20375;-65
2021/08/04 11:50:22;;;;;;;0.30;0.30;;;;;;;;;;5031888;28;20917;-65
2021/08/04 11:52:48;;;;;;;0.20;0.20;;;;;;;;;;5032241;28;20447;-65
2021/08/04 11:55:15;;;;;;;0.20;0.20;;;;;;;;;;5031937;28;20415;-64
2021/08/04 11:57:43;;;;;;;0.20;0.20;;;;;;;;;;5032299;28;20418;-65
2021/08/04 12:00:12;;;;;;;0.20;0.20;;;;;;;;;;5031949;28;20787;-66
2021/08/04 12:02:39;;;;;;;0.20;0.20;;;;;;;;;;5032202;28;20833;-65
2021/08/04 12:05:06;;;;;;;0.20;0.20;;;;;;;;;;5031961;28;20525;-65
2021/08/04 12:07:33;;;;;;;0.20;0.20;;;;;;;;;;5032020;28;20395;-64
2021/08/04 12:10:00;;;;;;;0.20;0.20;;;;;;;;;;5031390;28;20470;-64
2021/08/04 12:12:36;;;;;;;0.20;0.20;;;;;;;;;;5031869;28;20423;-65
2021/08/04 12:15:14;;;;;;;0.20;0.20;;;;;;;;;;5032051;28;20415;-65
2021/08/04 12:17:40;;;;;;;0.20;0.20;;;;;;;;;;5032053;28;20408;-66
2021/08/04 12:20:12;;;;;;;0.20;0.20;;;;;;;;;;5031577;28;20432;-65
2021/08/04 12:22:38;;;;;;;0.20;0.20;;;;;;;;;;5031775;28;20814;-66
2021/08/04 12:25:05;;;;;;;0.20;0.20;;;;;;;;;;5031847;28;20498;-66
2021/08/04 12:27:41;;;;;;;0.20;0.20;;;;;;;;;;5031690;28;20992;-66
2021/08/04 12:30:13;;;;;;;0.20;0.20;;;;;;;;;;5031135;28;20439;-65
2021/08/04 12:33:15;;;;;;;0.20;0.20;;;;;;;;;;5031741;28;20415;-65
2021/08/04 12:35:49;;;;;;;0.20;0.20;;;;;;;;;;5025230;28;20433;-65
2021/08/04 12:38:21;;;;;;;0.20;0.20;;;;;;;;;;5031668;28;20382;-64
2021/08/04 12:40:49;;;;;;;0.20;0.20;;;;;;;;;;5031649;28;20431;-65
2021/08/04 12:43:15;;;;;;;0.20;0.20;;;;;;;;;;5031629;28;20425;-65
2021/08/04 12:45:51;;;;;;;0.20;0.20;;;;;;;;;;5031919;28;20408;-65
2021/08/04 12:48:18;;;;;;;0.20;0.20;;;;;;;;;;5031919;28;20411;-61
2021/08/04 12:50:50;;;;;;;0.20;0.20;;;;;;;;;;5032259;28;20418;-65
2021/08/04 12:53:30;;;;;;;0.20;0.20;;;;;;;;;;5031622;28;20577;-65
2021/08/04 12:56:22;;;;;;;0.20;0.20;;;;;;;;;;5031851;28;20579;-66
2021/08/04 12:58:55;;;;;;;0.20;0.20;;;;;;;;;;5029424;28;20416;-66
2021/08/04 13:01:22;;;;;;;0.20;0.20;;;;;;;;;;5031453;28;20515;-65
2021/08/04 13:03:52;;;;;;;0.20;0.20;;;;;;;;;;5031717;28;20392;-64
2021/08/04 13:06:19;;;;;;;0.20;0.20;;;;;;;;;;5031484;28;20408;-66
2021/08/04 13:08:46;;;;;;;0.20;0.20;;;;;;;;;;5031434;28;20496;-65
2021/08/04 13:11:25;;;;;;;0.20;0.20;;;;;;;;;;5031278;28;20470;-66
2021/08/04 13:14:06;;;;;;;0.20;0.20;;;;;;;;;;5031279;28;20749;-64
2021/08/04 13:16:36;;;;;;;0.20;0.20;;;;;;;;;;5031413;28;20382;-65
2021/08/04 13:19:03;;;;;;;0.30;0.30;;;;;;;;;;5031357;28;20411;-66
2021/08/04 13:21:29;;;;;;;0.20;0.20;;;;;;;;;;5031493;28;20423;-64
2021/08/04 13:23:55;;;;;;;0.20;0.20;;;;;;;;;;5031346;28;20386;-65
2021/08/04 13:26:23;;;;;;;0.20;0.20;;;;;;;;;;5031422;28;20407;-65
2021/08/04 13:28:49;;;;;;;0.20;0.20;;;;;;;;;;5031115;28;20411;-65
2021/08/04 13:31:17;;;;;;;0.20;0.20;;;;;;;;;;5031647;28;20803;-65
2021/08/04 13:33:44;;;;;;;0.20;0.20;;;;;;;;;;5031569;28;20452;-65
2021/08/04 13:36:10;;;;;;;0.20;0.20;;;;;;;;;;5031127;28;20411;-65
2021/08/04 13:38:36;;;;;;;0.20;0.20;;;;;;;;;;5030786;28;20907;-65
2021/08/04 13:41:03;;;;;;;0.20;0.20;;;;;;;;;;5032303;28;20466;-65
2021/08/04 13:43:29;;;;;;;0.20;0.20;;;;;;;;;;5034650;28;21000;-65
2021/08/04 13:45:56;;;;;;;0.30;0.30;;;;;;;;;;5033405;28;20415;-64
2021/08/04 13:48:22;;;;;;;0.20;0.20;;;;;;;;;;5034811;28;20378;-65
2021/08/04 13:50:49;;;;;;;0.20;0.20;;;;;;;;;;5034285;28;20478;-65
2021/08/04 13:53:15;;;;;;;0.20;0.20;;;;;;;;;;5034450;28;20417;-65
2021/08/04 13:55:41;;;;;;;0.30;0.20;;;;;;;;;;5034558;28;20821;-65
2021/08/04 13:58:08;;;;;;;0.20;0.20;;;;;;;;;;5034580;28;20791;-63
2021/08/04 14:00:35;;;;;;;0.30;0.30;;;;;;;;;;5034186;28;20439;-65
2021/08/04 14:03:06;;;;;;;0.30;0.30;;;;;;;;;;5034240;28;20869;-64
2021/08/04 14:05:36;;;;;;;0.30;0.30;;;;;;;;;;5034496;28;20412;-66
2021/08/04 14:08:03;;;;;;;0.20;0.20;;;;;;;;;;5034034;28;20407;-65
2021/08/04 14:10:29;;;;;;;0.30;0.30;;;;;;;;;;5033744;28;20817;-63
2021/08/04 14:12:55;;;;;;;0.30;0.30;;;;;;;;;;5033938;28;20412;-63
2021/08/04 14:15:22;;;;;;;0.30;0.30;;;;;;;;;;5034142;28;20414;-64
2021/08/04 14:17:48;;;;;;;0.30;0.30;;;;;;;;;;5034415;28;20405;-64
2021/08/04 14:20:15;;;;;;;0.30;0.30;;;;;;;;;;5033755;28;21061;-64
2021/08/04 14:22:41;;;;;;;0.30;0.30;;;;;;;;;;5034175;28;20458;-64
2021/08/04 14:25:08;;;;;;;0.30;0.30;;;;;;;;;;5034791;28;20443;-64
2021/08/04 14:27:35;;;;;;;0.20;0.20;;;;;;;;;;5033855;28;20404;-65
2021/08/04 14:30:01;;;;;;;0.30;0.30;;;;;;;;;;5032483;28;20415;-65
2021/08/04 14:32:27;;;;;;;0.27;0.27;;;;;;;;;;5033789;28;20406;-66
2021/08/04 14:34:53;;;;;;;0.20;0.20;;;;;;;;;;5033748;28;20841;-67
2021/08/04 14:37:19;;;;;;;0.20;0.20;;;;;;;;;;5033549;28;20947;-66
2021/08/04 14:39:46;;;;;;;0.20;0.20;;;;;;;;;;5033057;28;20390;-64
2021/08/04 14:42:12;;;;;;;0.30;0.30;;;;;;;;;;5033363;28;20480;-65
2021/08/04 14:44:38;;;;;;;0.30;0.30;;;;;;;;;;5033526;28;20417;-66
2021/08/04 14:47:04;;;;;;;0.20;0.20;;;;;;;;;;5033586;28;20412;-66